createdAt,value
2019-05-25T00:01:23.775Z,82.60
2019-05-25T00:03:55.072Z,82.20
2019-05-25T00:06:26.379Z,82.00
2019-05-25T00:08:57.634Z,81.80
2019-05-25T00:11:28.837Z,81.70
2019-05-25T00:14:00.109Z,81.40
2019-05-25T00:16:31.269Z,81.10
2019-05-25T00:19:02.622Z,80.90
2019-05-25T00:21:34.928Z,81.00
2019-05-25T00:24:12.351Z,80.80
2019-05-25T00:26:39.245Z,80.60
2019-05-25T00:29:10.413Z,80.60
2019-05-25T00:31:41.720Z,80.60
2019-05-25T00:34:13.086Z,80.60
2019-05-25T00:36:44.405Z,80.40
2019-05-25T00:39:15.677Z,80.40
2019-05-25T00:41:46.876Z,80.50
2019-05-25T00:44:18.157Z,80.70
2019-05-25T00:46:49.453Z,80.90
2019-05-25T00:49:20.935Z,81.10
2019-05-25T00:51:52.208Z,81.20
2019-05-25T00:54:27.954Z,81.30
2019-05-25T00:56:56.484Z,81.40
2019-05-25T00:59:28.742Z,81.80
2019-05-25T01:01:59.928Z,81.90
2019-05-25T01:04:31.091Z,82.00
2019-05-25T01:07:02.310Z,82.20
2019-05-25T01:09:33.620Z,82.50
2019-05-25T01:12:04.912Z,82.80
2019-05-25T01:14:36.077Z,82.90
2019-05-25T01:17:08.384Z,82.90
2019-05-25T01:19:39.559Z,83.00
2019-05-25T01:22:10.744Z,83.10
2019-05-25T01:24:44.820Z,83.20
2019-05-25T01:27:15.015Z,83.60
2019-05-25T01:29:46.269Z,83.80
2019-05-25T01:32:17.507Z,84.00
2019-05-25T01:34:48.668Z,84.10
2019-05-25T01:37:19.969Z,84.40
2019-05-25T01:39:51.276Z,84.50
2019-05-25T01:42:22.528Z,84.60
2019-05-25T01:44:53.760Z,84.80
2019-05-25T01:47:24.944Z,85.00
2019-05-25T01:49:56.185Z,85.20
2019-05-25T01:52:27.472Z,85.50
2019-05-25T01:55:00.178Z,85.60
2019-05-25T01:57:31.830Z,85.90
2019-05-25T02:00:04.990Z,86.00
2019-05-25T02:02:36.157Z,86.10
2019-05-25T02:05:07.447Z,87.00
2019-05-25T02:07:39.807Z,86.50
2019-05-25T02:10:11.169Z,86.70
2019-05-25T02:12:42.454Z,86.90
2019-05-25T02:15:13.725Z,87.50
2019-05-25T02:17:44.910Z,87.20
2019-05-25T02:20:16.275Z,87.30
2019-05-25T02:22:47.465Z,87.60
2019-05-25T02:25:19.090Z,87.70
2019-05-25T02:27:50.399Z,87.90
2019-05-25T02:30:24.365Z,88.00
2019-05-25T02:32:55.570Z,88.00
2019-05-25T02:35:27.758Z,88.00
2019-05-25T02:37:59.051Z,88.00
2019-05-25T02:40:30.224Z,88.00
2019-05-25T02:43:01.605Z,87.90
2019-05-25T02:45:33.226Z,88.00
2019-05-25T02:48:04.523Z,88.20
2019-05-25T02:50:35.713Z,88.10
2019-05-25T02:53:06.942Z,88.10
2019-05-25T02:55:38.101Z,88.00
2019-05-25T02:58:09.307Z,88.10
2019-05-25T03:00:40.488Z,88.00
2019-05-25T03:03:11.884Z,87.90
2019-05-25T03:05:43.392Z,87.90
2019-05-25T03:08:14.677Z,88.00
2019-05-25T03:10:47.269Z,87.90
2019-05-25T03:13:18.835Z,87.80
2019-05-25T03:15:50.071Z,87.90
2019-05-25T03:18:21.329Z,88.00
2019-05-25T03:20:52.540Z,88.20
2019-05-25T03:23:24.883Z,88.20
2019-05-25T03:25:56.171Z,88.30
2019-05-25T03:28:27.442Z,88.30
2019-05-25T03:30:58.774Z,88.40
2019-05-25T03:33:29.944Z,89.00
2019-05-25T03:36:01.371Z,88.50
2019-05-25T03:38:32.664Z,88.50
2019-05-25T03:41:03.877Z,88.50
2019-05-25T03:43:35.139Z,88.60
2019-05-25T03:46:06.328Z,88.60
2019-05-25T03:48:37.517Z,88.60
2019-05-25T03:51:08.731Z,88.50
2019-05-25T03:53:39.986Z,88.60
2019-05-25T03:56:11.228Z,88.50
2019-05-25T03:58:42.386Z,88.30
2019-05-25T04:01:13.573Z,88.10
2019-05-25T04:03:44.794Z,88.10
2019-05-25T04:06:16.043Z,87.90
2019-05-25T04:08:47.230Z,87.80
2019-05-25T04:11:18.528Z,87.70
2019-05-25T04:13:49.763Z,87.40
2019-05-25T04:16:21.137Z,86.70
2019-05-25T04:18:52.403Z,86.10
2019-05-25T04:21:23.741Z,85.40
2019-05-25T04:23:54.963Z,84.90
2019-05-25T04:26:27.583Z,83.90
2019-05-25T04:28:59.192Z,82.60
2019-05-25T04:31:31.639Z,80.70
2019-05-25T04:34:03.037Z,78.60
2019-05-25T04:36:34.346Z,77.40
2019-05-25T04:39:06.585Z,76.90
2019-05-25T04:41:37.788Z,76.30
2019-05-25T04:44:09.079Z,75.10
2019-05-25T04:46:53.723Z,73.70
2019-05-25T04:49:24.900Z,72.40
2019-05-25T04:51:57.200Z,71.20
2019-05-25T04:54:28.388Z,69.70
2019-05-25T04:56:59.578Z,68.00
2019-05-25T04:59:31.015Z,66.30
2019-05-25T05:02:02.654Z,65.10
2019-05-25T05:04:33.996Z,63.30
2019-05-25T05:07:05.207Z,61.30
2019-05-25T05:09:36.668Z,59.90
2019-05-25T05:12:08.143Z,58.20
2019-05-25T05:14:39.730Z,56.80
2019-05-25T05:17:11.608Z,56.20
2019-05-25T05:19:43.094Z,54.50
2019-05-25T05:22:14.351Z,53.40
2019-05-25T05:24:46.272Z,52.20
2019-05-25T05:27:18.217Z,50.90
2019-05-25T05:29:49.468Z,48.70
2019-05-25T05:32:27.650Z,46.40
2019-05-25T05:34:55.030Z,45.00
2019-05-25T05:37:26.528Z,43.50
2019-05-25T05:39:58.182Z,42.50
2019-05-25T05:42:30.034Z,41.20
2019-05-25T05:45:02.858Z,40.20
2019-05-25T05:47:34.495Z,40.20
2019-05-25T05:50:06.946Z,39.70
2019-05-25T05:52:38.729Z,39.00
2019-05-25T05:55:10.489Z,38.70
2019-05-25T05:57:41.849Z,38.60
2019-05-25T06:00:16.680Z,38.60
2019-05-25T06:02:48.182Z,38.10
2019-05-25T06:05:23.872Z,37.50
2019-05-25T06:07:55.395Z,36.90
2019-05-25T06:10:26.711Z,37.00
2019-05-25T06:12:58.168Z,37.10
2019-05-25T06:15:29.465Z,36.20
2019-05-25T06:18:00.657Z,36.00
2019-05-25T06:20:32.086Z,35.10
2019-05-25T06:23:07.665Z,34.70
2019-05-25T06:25:37.647Z,34.90
2019-05-25T06:28:08.971Z,35.10
2019-05-25T06:30:41.244Z,35.40
2019-05-25T06:33:12.549Z,35.20
2019-05-25T06:35:43.864Z,35.30
2019-05-25T06:38:15.166Z,34.60
2019-05-25T06:40:46.846Z,33.70
2019-05-25T06:43:18.517Z,33.40
2019-05-25T06:45:49.762Z,32.80
2019-05-25T06:48:21.951Z,32.70
2019-05-25T06:50:53.169Z,32.30
2019-05-25T06:53:24.483Z,31.90
2019-05-25T06:55:55.813Z,31.80
2019-05-25T06:58:27.461Z,31.40
2019-05-25T07:00:59.794Z,31.20
2019-05-25T07:03:31.377Z,31.40
2019-05-25T07:06:02.788Z,31.00
2019-05-25T07:08:35.016Z,30.60
2019-05-25T07:11:06.417Z,30.40
2019-05-25T07:13:37.774Z,30.30
2019-05-25T07:16:10.088Z,30.10
2019-05-25T07:18:41.800Z,29.80
2019-05-25T07:21:13.312Z,29.60
2019-05-25T07:23:44.528Z,29.70
2019-05-25T07:26:16.862Z,29.90
2019-05-25T07:28:48.128Z,29.30
2019-05-25T07:31:19.415Z,29.10
2019-05-25T07:33:50.665Z,29.00
2019-05-25T07:36:21.827Z,29.10
2019-05-25T07:38:53.075Z,29.30
2019-05-25T07:41:24.496Z,28.90
2019-05-25T07:43:55.932Z,29.30
2019-05-25T07:46:27.332Z,29.10
2019-05-25T07:48:58.686Z,29.50
2019-05-25T07:51:30.064Z,29.40
2019-05-25T07:54:01.406Z,29.40
2019-05-25T07:56:33.622Z,28.90
2019-05-25T07:59:04.899Z,28.40
2019-05-25T08:01:36.357Z,28.70
2019-05-25T08:04:07.730Z,28.20
2019-05-25T08:06:38.980Z,28.30
2019-05-25T08:09:10.622Z,28.70
2019-05-25T08:11:42.623Z,29.40
2019-05-25T08:14:13.930Z,28.70
2019-05-25T08:16:45.250Z,29.00
2019-05-25T08:19:16.641Z,28.80
2019-05-25T08:21:48.656Z,28.90
2019-05-25T08:24:20.088Z,29.10
2019-05-25T08:26:51.353Z,28.70
2019-05-25T08:29:23.102Z,28.90
2019-05-25T08:31:55.097Z,29.30
2019-05-25T08:34:26.627Z,29.50
2019-05-25T08:36:57.899Z,29.70
2019-05-25T08:39:29.304Z,29.00
2019-05-25T08:42:00.659Z,28.80
2019-05-25T08:44:31.969Z,29.10
2019-05-25T08:47:03.483Z,28.50
2019-05-25T08:49:35.073Z,27.80
2019-05-25T08:52:06.338Z,27.80
2019-05-25T08:54:37.573Z,28.30
2019-05-25T08:57:08.834Z,28.80
2019-05-25T08:59:40.290Z,29.20
2019-05-25T09:02:11.937Z,28.70
2019-05-25T09:04:43.760Z,28.80
2019-05-25T09:07:15.219Z,29.60
2019-05-25T09:09:47.864Z,29.40
2019-05-25T09:12:19.164Z,29.70
2019-05-25T09:14:51.567Z,29.10
2019-05-25T09:17:22.930Z,29.00
2019-05-25T09:19:54.262Z,28.90
2019-05-25T09:22:25.632Z,28.50
2019-05-25T09:24:56.894Z,28.50
2019-05-25T09:27:28.203Z,28.90
2019-05-25T09:29:59.887Z,28.60
2019-05-25T09:32:31.216Z,29.40
2019-05-25T09:35:06.493Z,29.80
2019-05-25T09:37:38.783Z,29.80
2019-05-25T09:40:10.182Z,30.40
2019-05-25T09:42:41.765Z,29.70
2019-05-25T09:45:14.410Z,29.80
2019-05-25T09:47:45.832Z,30.00
2019-05-25T09:50:17.429Z,30.50
2019-05-25T09:52:48.668Z,30.50
2019-05-25T09:55:20.142Z,30.10
2019-05-25T09:57:51.340Z,30.00
2019-05-25T10:00:22.909Z,29.90
2019-05-25T10:02:54.579Z,30.00
2019-05-25T10:05:25.813Z,30.50
2019-05-25T10:07:57.076Z,32.00
2019-05-25T10:10:28.266Z,31.50
2019-05-25T10:12:59.546Z,30.80
2019-05-25T10:15:31.068Z,30.80
2019-05-25T10:18:02.255Z,30.90
2019-05-25T10:20:35.030Z,30.40
2019-05-25T10:23:06.353Z,31.00
2019-05-25T10:25:37.526Z,29.90
2019-05-25T10:28:09.127Z,29.80
2019-05-25T10:30:40.421Z,30.00
2019-05-25T10:33:12.124Z,30.40
2019-05-25T10:35:43.561Z,30.20
2019-05-25T10:38:14.821Z,30.00
2019-05-25T10:40:46.128Z,30.10
2019-05-25T10:43:17.737Z,30.20
2019-05-25T10:45:49.256Z,29.40
2019-05-25T10:48:20.539Z,29.70
2019-05-25T10:50:51.943Z,29.40
2019-05-25T10:53:23.289Z,29.10
2019-05-25T10:55:54.565Z,29.10
2019-05-25T10:58:25.946Z,28.80
2019-05-25T11:00:57.634Z,29.20
2019-05-25T11:03:29.006Z,29.60
2019-05-25T11:06:00.590Z,29.40
2019-05-25T11:08:32.077Z,29.70
2019-05-25T11:11:03.324Z,30.00
2019-05-25T11:13:34.605Z,30.10
2019-05-25T11:16:06.950Z,30.70
2019-05-25T11:18:38.292Z,29.70
2019-05-25T11:21:09.614Z,29.90
2019-05-25T11:23:41.102Z,29.90
2019-05-25T11:26:12.562Z,29.10
2019-05-25T11:28:44.209Z,29.30
2019-05-25T11:31:15.677Z,29.10
2019-05-25T11:33:47.265Z,28.90
2019-05-25T11:36:19.123Z,29.10
2019-05-25T11:38:50.386Z,28.70
2019-05-25T11:41:21.792Z,29.70
2019-05-25T11:43:53.184Z,30.50
2019-05-25T11:46:24.749Z,30.40
2019-05-25T11:48:56.782Z,29.70
2019-05-25T11:51:28.355Z,29.50
2019-05-25T11:53:59.833Z,29.10
2019-05-25T11:56:31.598Z,29.40
2019-05-25T11:59:03.018Z,29.70
2019-05-25T12:01:34.379Z,29.40
2019-05-25T12:04:05.544Z,28.80
2019-05-25T12:06:37.035Z,28.90
2019-05-25T12:09:08.487Z,29.30
2019-05-25T12:11:40.449Z,30.10
2019-05-25T12:14:11.836Z,29.70
2019-05-25T12:16:44.141Z,29.30
2019-05-25T12:19:15.416Z,29.30
2019-05-25T12:21:47.216Z,29.20
2019-05-25T12:24:18.497Z,29.50
2019-05-25T12:26:50.001Z,30.00
2019-05-25T12:29:21.445Z,30.20
2019-05-25T12:32:03.434Z,30.80
2019-05-25T12:34:26.441Z,30.70
2019-05-25T12:36:57.732Z,30.80
2019-05-25T12:39:29.204Z,30.50
2019-05-25T12:42:00.669Z,30.50
2019-05-25T12:44:34.359Z,31.00
2019-05-25T12:47:05.809Z,31.40
2019-05-25T12:49:50.041Z,30.20
2019-05-25T12:52:11.547Z,29.10
2019-05-25T12:54:43.054Z,29.40
2019-05-25T12:57:14.392Z,29.90
2019-05-25T12:59:45.953Z,30.80
2019-05-25T13:02:17.560Z,30.50
2019-05-25T13:04:49.188Z,31.20
2019-05-25T13:07:20.813Z,31.20
2019-05-25T13:09:52.078Z,31.60
2019-05-25T13:12:23.603Z,32.20
2019-05-25T13:14:54.917Z,33.00
2019-05-25T13:17:26.287Z,34.50
2019-05-25T13:19:57.697Z,34.70
2019-05-25T13:22:29.152Z,34.80
2019-05-25T13:25:00.337Z,35.50
2019-05-25T13:27:31.776Z,36.20
2019-05-25T13:30:05.546Z,36.40
2019-05-25T13:32:37.369Z,36.40
2019-05-25T13:35:09.099Z,36.30
2019-05-25T13:37:40.610Z,35.80
2019-05-25T13:40:12.231Z,36.00
2019-05-25T13:42:43.774Z,35.90
2019-05-25T13:45:15.109Z,36.20
2019-05-25T13:47:46.546Z,36.20
2019-05-25T13:50:17.997Z,35.70
2019-05-25T13:52:49.406Z,35.30
2019-05-25T13:55:20.864Z,35.80
2019-05-25T13:57:52.698Z,34.60
2019-05-25T14:00:24.194Z,34.20
2019-05-25T14:02:55.514Z,34.70
2019-05-25T14:05:26.957Z,34.40
2019-05-25T14:07:58.388Z,34.10
2019-05-25T14:10:30.120Z,33.80
2019-05-25T14:13:01.711Z,34.40
2019-05-25T14:15:33.602Z,34.60
2019-05-25T14:18:04.854Z,34.60
2019-05-25T14:20:36.521Z,35.10
2019-05-25T14:23:07.824Z,35.10
2019-05-25T14:25:39.673Z,34.30
2019-05-25T14:28:11.073Z,34.50
2019-05-25T14:30:42.774Z,34.60
2019-05-25T14:33:14.716Z,34.80
2019-05-25T14:35:46.057Z,34.80
2019-05-25T14:38:17.466Z,35.00
2019-05-25T14:40:49.128Z,35.10
2019-05-25T14:43:20.532Z,35.10
2019-05-25T14:45:53.366Z,34.90
2019-05-25T14:48:25.035Z,35.00
2019-05-25T14:50:57.105Z,35.30
2019-05-25T14:53:28.617Z,35.80
2019-05-25T14:55:59.784Z,35.50
2019-05-25T14:58:31.080Z,35.40
2019-05-25T15:01:03.788Z,35.70
2019-05-25T15:03:35.061Z,35.50
2019-05-25T15:06:06.373Z,35.50
2019-05-25T15:08:37.653Z,35.60
2019-05-25T15:11:09.223Z,35.50
2019-05-25T15:13:40.398Z,35.50
2019-05-25T15:16:12.290Z,35.80
2019-05-25T15:18:43.629Z,35.80
2019-05-25T15:21:14.921Z,36.10
2019-05-25T15:23:46.141Z,35.90
2019-05-25T15:26:17.792Z,35.60
2019-05-25T15:28:49.154Z,35.50
2019-05-25T15:31:21.569Z,35.10
2019-05-25T15:33:53.130Z,34.80
2019-05-25T15:36:24.418Z,34.80
2019-05-25T15:38:56.092Z,35.50
2019-05-25T15:41:27.537Z,36.40
2019-05-25T15:43:58.947Z,36.10
2019-05-25T15:46:30.161Z,36.30
2019-05-25T15:49:01.899Z,36.60
2019-05-25T15:51:33.925Z,36.80
2019-05-25T15:54:09.762Z,37.10
2019-05-25T15:56:38.253Z,37.30
2019-05-25T15:59:09.626Z,37.60
2019-05-25T16:01:42.403Z,38.10
2019-05-25T16:04:13.720Z,38.20
2019-05-25T16:06:44.888Z,38.30
2019-05-25T16:09:16.688Z,38.70
2019-05-25T16:11:48.119Z,39.20
2019-05-25T16:14:19.442Z,39.40
2019-05-25T16:16:50.998Z,39.50
2019-05-25T16:19:22.430Z,39.60
2019-05-25T16:21:54.209Z,39.70
2019-05-25T16:24:25.761Z,39.60
2019-05-25T16:26:57.112Z,39.80
2019-05-25T16:29:28.432Z,40.20
2019-05-25T16:32:00.173Z,40.40
2019-05-25T16:34:31.495Z,40.80
2019-05-25T16:37:03.192Z,41.10
2019-05-25T16:39:34.713Z,41.20
2019-05-25T16:42:06.333Z,41.30
2019-05-25T16:44:37.628Z,41.40
2019-05-25T16:47:09.001Z,41.60
2019-05-25T16:49:40.697Z,41.60
2019-05-25T16:52:12.163Z,41.60
2019-05-25T16:54:43.578Z,41.70
2019-05-25T16:57:15.030Z,41.90
2019-05-25T16:59:46.207Z,42.20
2019-05-25T17:02:18.897Z,42.40
2019-05-25T17:04:50.320Z,42.50
2019-05-25T17:07:21.721Z,42.80
2019-05-25T17:09:53.149Z,43.20
2019-05-25T17:12:24.478Z,43.40
2019-05-25T17:14:55.838Z,43.80
2019-05-25T17:17:27.627Z,44.30
2019-05-25T17:19:59.118Z,44.80
2019-05-25T17:22:31.520Z,45.20
2019-05-25T17:25:06.231Z,45.60
2019-05-25T17:27:37.671Z,46.20
2019-05-25T17:30:09.383Z,46.50
2019-05-25T17:32:40.690Z,47.20
2019-05-25T17:35:12.168Z,47.60
2019-05-25T17:37:43.554Z,47.60
2019-05-25T17:40:15.440Z,47.70
2019-05-25T17:42:46.887Z,47.90
2019-05-25T17:45:18.138Z,48.20
2019-05-25T17:47:49.536Z,48.50
2019-05-25T17:50:20.888Z,48.60
2019-05-25T17:52:52.338Z,48.80
2019-05-25T17:55:23.505Z,49.00
2019-05-25T17:57:55.343Z,48.90
2019-05-25T18:00:38.549Z,49.20
2019-05-25T18:03:09.860Z,49.60
2019-05-25T18:05:41.289Z,49.90
2019-05-25T18:08:12.757Z,49.90
2019-05-25T18:10:52.771Z,49.70
2019-05-25T18:13:18.091Z,50.10
2019-05-25T18:15:49.687Z,50.60
2019-05-25T18:18:20.964Z,50.30
2019-05-25T18:20:52.426Z,50.00
2019-05-25T18:23:23.807Z,50.20
2019-05-25T18:25:55.458Z,50.30
2019-05-25T18:28:26.816Z,50.80
2019-05-25T18:30:58.815Z,50.80
2019-05-25T18:33:30.112Z,51.00
2019-05-25T18:36:01.711Z,51.70
2019-05-25T18:38:32.974Z,52.00
2019-05-25T18:41:04.270Z,51.90
2019-05-25T18:43:36.733Z,52.30
2019-05-25T18:46:08.148Z,52.50
2019-05-25T18:48:39.648Z,53.10
2019-05-25T18:51:12.113Z,53.60
2019-05-25T18:53:43.492Z,54.80
2019-05-25T18:56:15.045Z,55.30
2019-05-25T18:58:46.341Z,54.90
2019-05-25T19:01:17.629Z,55.90
2019-05-25T19:03:50.186Z,55.50
2019-05-25T19:06:21.539Z,55.90
2019-05-25T19:08:53.354Z,56.90
2019-05-25T19:11:25.225Z,57.90
2019-05-25T19:13:56.740Z,57.70
2019-05-25T19:16:28.939Z,57.60
2019-05-25T19:19:00.334Z,58.70
2019-05-25T19:21:31.790Z,59.10
2019-05-25T19:24:03.121Z,59.40
2019-05-25T19:26:34.693Z,59.90
2019-05-25T19:29:06.316Z,61.00
2019-05-25T19:31:37.798Z,63.30
2019-05-25T19:34:09.157Z,63.80
2019-05-25T19:36:40.935Z,63.60
2019-05-25T19:39:12.729Z,63.80
2019-05-25T19:41:44.521Z,64.20
2019-05-25T19:44:16.329Z,64.70
2019-05-25T19:46:47.653Z,65.60
2019-05-25T19:49:19.626Z,66.00
2019-05-25T19:51:50.907Z,66.20
2019-05-25T19:54:22.302Z,66.70
2019-05-25T19:56:54.298Z,67.10
2019-05-25T19:59:25.708Z,67.30
2019-05-25T20:01:57.736Z,68.00
2019-05-25T20:04:29.062Z,68.10
2019-05-25T20:07:00.722Z,68.90
2019-05-25T20:09:32.143Z,69.30
2019-05-25T20:12:03.800Z,69.30
2019-05-25T20:14:35.502Z,69.30
2019-05-25T20:17:07.220Z,69.30
2019-05-25T20:19:38.769Z,69.40
2019-05-25T20:22:10.440Z,69.90
2019-05-25T20:24:41.789Z,70.40
2019-05-25T20:27:12.972Z,70.70
2019-05-25T20:29:45.158Z,70.90
2019-05-25T20:32:16.433Z,70.90
2019-05-25T20:34:48.043Z,71.00
2019-05-25T20:37:19.478Z,71.30
2019-05-25T20:39:51.069Z,71.90
2019-05-25T20:42:22.412Z,72.40
2019-05-25T20:44:54.003Z,72.90
2019-05-25T20:47:25.569Z,73.30
2019-05-25T20:49:56.932Z,73.80
2019-05-25T20:52:28.158Z,73.90
2019-05-25T20:54:59.636Z,73.80
2019-05-25T20:57:31.116Z,74.00
2019-05-25T21:00:04.644Z,74.40
2019-05-25T21:02:37.408Z,75.10
2019-05-25T21:05:08.902Z,75.60
2019-05-25T21:07:40.620Z,76.00
2019-05-25T21:10:11.890Z,76.20
2019-05-25T21:12:43.856Z,76.60
2019-05-25T21:15:16.978Z,77.10
2019-05-25T21:17:48.539Z,77.10
2019-05-25T21:20:19.933Z,77.30
2019-05-25T21:22:51.460Z,77.60
2019-05-25T21:25:22.872Z,77.70
2019-05-25T21:27:54.482Z,77.90
2019-05-25T21:30:26.330Z,78.10
2019-05-25T21:32:57.592Z,78.70
2019-05-25T21:35:30.216Z,78.90
2019-05-25T21:38:01.521Z,79.20
2019-05-25T21:40:33.037Z,79.60
2019-05-25T21:43:04.410Z,79.90
2019-05-25T21:45:36.063Z,80.20
2019-05-25T21:48:07.840Z,80.40
2019-05-25T21:50:39.486Z,80.70
2019-05-25T21:53:11.447Z,81.00
2019-05-25T21:55:42.980Z,81.20
2019-05-25T21:58:14.358Z,81.30
2019-05-25T22:00:46.021Z,81.60
2019-05-25T22:03:17.680Z,81.80
2019-05-25T22:05:49.188Z,82.00
2019-05-25T22:08:20.960Z,82.90
2019-05-25T22:10:52.248Z,82.30
2019-05-25T22:13:28.674Z,82.90
2019-05-25T22:15:57.582Z,82.50
2019-05-25T22:18:28.980Z,82.80
2019-05-25T22:21:01.183Z,82.70
2019-05-25T22:23:32.928Z,82.90
2019-05-25T22:26:04.488Z,83.00
2019-05-25T22:28:44.953Z,83.30
2019-05-25T22:31:09.626Z,83.50
2019-05-25T22:33:40.903Z,83.60
2019-05-25T22:36:12.245Z,83.80
2019-05-25T22:38:43.621Z,83.70
2019-05-25T22:41:15.077Z,83.70
2019-05-25T22:43:46.605Z,83.90
2019-05-25T22:46:18.095Z,83.80
2019-05-25T22:48:49.759Z,84.10
2019-05-25T22:51:21.091Z,84.30
2019-05-25T22:54:06.141Z,84.50
2019-05-25T22:56:37.347Z,84.60
2019-05-25T22:59:08.942Z,84.70
2019-05-25T23:01:40.806Z,84.80
2019-05-25T23:04:12.291Z,85.00
2019-05-25T23:06:57.104Z,85.20
2019-05-25T23:09:18.199Z,85.40
2019-05-25T23:11:49.744Z,85.20
2019-05-25T23:14:21.236Z,85.30
2019-05-25T23:16:52.608Z,85.50
2019-05-25T23:19:24.150Z,85.50
2019-05-25T23:21:55.724Z,85.60
2019-05-25T23:24:27.144Z,85.60
2019-05-25T23:26:59.685Z,85.70
2019-05-25T23:29:31.050Z,85.80
2019-05-25T23:32:02.592Z,85.80
2019-05-25T23:34:34.198Z,86.40
2019-05-25T23:37:14.112Z,85.90
2019-05-25T23:39:38.990Z,86.10
2019-05-25T23:42:10.745Z,86.10
2019-05-25T23:44:42.108Z,86.20
2019-05-25T23:47:13.388Z,86.20
2019-05-25T23:49:45.012Z,86.10
2019-05-25T23:52:16.317Z,86.10
2019-05-25T23:54:48.116Z,86.10
2019-05-25T23:57:19.469Z,86.00
2019-05-25T23:59:50.947Z,85.80
